Strona główna
METAR-TAF:

METAR-TAF

Lotnisko :

Sussex Airport

Sussex, New Jersey, Stany Zjednoczone

Szerokość geograficzna: 41-12-01N, Długość geograficzna: 074-37-23W, wysokość: 128 m

Aktualna obserwacja pogody

Raport powstał 1 godzina i 1 minut temu, godzina 00:53 UTC
Wiatr 3 kt z kierunków zmiennych
Temperatura 19°C
Wilgotność 94%
Ciśnienie 1006 hPa
Widzialność: 16.1 km
Rozproszone chmury na wysokości 8500 ft

METAR: KFWN 040053Z AUTO VRB03KT 10SM SCT085 19/18 A2970 RMK AO2 RAE34 TSE03 SLP054 P0004 T01940178

czas: 21:54 (01:54 UTC)


TAF: brakujący

Obserwacja i prognoza pogody dla ponad 4000 lotnisk (raport METAR i TAF).

Dostępne stacje oznaczono żółtymi i czerwonymi punktami na mapie.

Najedź kursorem aby zobaczyć nazwę stacji.

Kliknij aby zobaczyć obserwacje i prognozy pogody.

Aby zmienić mapę: kliknij na zielony przycisk z czarnym krzyżykiem, aby powiększyć; na zielony przycisk z myślnikiem, aby pomniejszyć; na zielone strzałki, aby przejść do map sąsiednich.


METAR-TAF: